Ana Sayfa
METAR-TAF:

METAR-TAF

Havaalanları :

Harare Uluslararası Havalimanı

Harare, Zimbabve

Enlem: 17-55S, Boylam: 031-08E, yükseklik: 1479 m

Güncel hava durumu gözlemi

Rapor saat 03:00 UTC de 1 saat ve 21 dakika önce yapıldı.
Rüzgar doğu/kuzeydoğudan 3 kt, kuzeydoğu ve doğu arasında değişken
Sıcaklık 7°C
Nem 93%
Basınç 1025 hPa
Görüş mesafesi 10 km veya daha fazla
1500 m altında bulut yok ve kümülonimbus yok

METAR: FVHA 190300Z 07003KT 040V100 CAVOK 07/06 Q1025 NOSIG

Saat: 06:21 (04:21 UTC)

Tahmin

Rapor saat 16:00 UTC de 12 saat ve 21 dakika önce yapıldı.
Ayın 18'si saat 18 UTC'den ayın 19'si saat 24 UTC'ye kadar geçerli Tahmin
Rüzgar doğu/kuzeydoğudan 4 kt
Görüş mesafesi 10 km veya daha fazla
1500 m altında bulut yok ve kümülonimbus yok

TAF: FVHA 181600Z 1818/1924 06004KT CAVOK

4.000'den fazla havaalanı için hava durumu gözlemleri ve tahminleri (METAR ve TAF raporları).

Kullanılabilir istasyonlar harita üzerinde sarı ve kırmızı noktalarla gösterilir.

İstasyonun adını görmek için fareyi noktanın üzerinde gezdirin.

Sonrasında hava gözlem ve tahminlerini görmek için tıklayın.

Haritayı değiştirmek için: yaklaştırmak için siyah artı işaretli yeşil düğmeye ve uzaklaştırmak için de eksi işaretli düğmeye hızla tıklayın; bitişik haritalar için yeşil okları kullanın.


METAR-TAF: